Terminal Aerodrome Forecast
Issued by NWS Charleston, WV

Current Version | Previous Version | Text Only | Print | Product List | Glossary Off
Versions: 1 2 3 4 5 6 7 8 9 10 11 12 13 14 15 16 17 18 19 20 21 22 23 24

000
FTUS41 KRLX 270200 AAA
TAFEKN
TAF AMD
KEKN 270236Z 2703/2724 00000KT P6SM SKC
     FM270400 00000KT 6SM BR FEW200
     FM270500 00000KT 3SM BR FEW150
     FM270700 00000KT 1SM BR SCT001
     FM270900 00000KT 1/4SM FG VV001
     FM271300 00000KT 2SM BR SCT002
     FM271400 00000KT P6SM SCT070
     FM271600 VRB03KT P6SM BKN045=

USA.gov is the U.S. government's official web portal to all federal, state and local government web resources and services.